Time;durP1;ratioP1;P1;durP2;ratioP2;P2;SDS_P1;SDS_P2;PMS_P1;PMS_P2;Temp;Humidity;BMP_temperature;BMP_pressure;BME280_temperature;BME280_humidity;BME280_pressure;Samples;Min_cycle;Max_cycle;Signal;HPM_P1;HPM_P2
2022/07/20 00:01:21;;;;;;;23.58;22.15;;;20.60;88.20;;;;;;5032651;28;20352;-75
2022/07/20 00:03:47;;;;;;;30.42;28.77;;;20.50;88.80;;;;;;5034063;28;20257;-75
2022/07/20 00:06:14;;;;;;;52.03;49.22;;;20.50;90.10;;;;;;5032657;28;20186;-75
2022/07/20 00:11:24;;;;;;;59.00;55.92;;;20.40;90.30;;;;;;5033588;28;20261;-73
2022/07/20 00:13:54;;;;;;;50.63;47.90;;;20.40;90.40;;;;;;5032227;28;20272;-75
2022/07/20 00:16:22;;;;;;;57.35;54.08;;;20.30;90.50;;;;;;5033684;28;20261;-75
2022/07/20 00:18:48;;;;;;;33.03;31.13;;;20.20;91.10;;;;;;5032402;28;20179;-75
2022/07/20 00:21:14;;;;;;;12.77;11.98;;;20.00;92.00;;;;;;5033539;28;20179;-75
2022/07/20 00:23:40;;;;;;;14.85;13.65;;;19.90;92.50;;;;;;5033260;28;20258;-75
2022/07/20 00:26:06;;;;;;;28.80;27.08;;;19.90;93.00;;;;;;5033089;28;20187;-75
2022/07/20 00:28:32;;;;;;;37.17;35.13;;;19.80;93.40;;;;;;5032235;28;20186;-75
2022/07/20 00:30:58;;;;;;;53.53;50.45;;;19.80;93.90;;;;;;5032035;28;20625;-75
2022/07/20 00:33:23;;;;;;;68.22;64.38;;;19.80;94.40;;;;;;5033233;28;20261;-75
2022/07/20 00:35:49;;;;;;;70.57;66.80;;;19.90;95.20;;;;;;5033192;28;20676;-75
2022/07/20 00:38:15;;;;;;;72.63;68.63;;;19.80;95.50;;;;;;5030606;28;20225;-75
2022/07/20 00:40:41;;;;;;;68.05;64.43;;;19.70;96.30;;;;;;5031599;28;20273;-73
2022/07/20 00:43:07;;;;;;;17.27;15.70;;;19.50;97.00;;;;;;5056955;28;20712;-74
2022/07/20 00:45:33;;;;;;;121.05;114.53;;;19.20;98.00;;;;;;5052694;28;20214;-75
2022/07/20 00:48:00;;;;;;;148.57;140.82;;;19.10;99.30;;;;;;5050008;28;20228;-74
2022/07/20 00:50:26;;;;;;;121.68;115.30;;;19.00;99.90;;;;;;5035115;28;20191;-75
2022/07/20 00:52:52;;;;;;;141.93;133.77;;;19.10;99.90;;;;;;5034748;28;20215;-74
2022/07/20 00:55:18;;;;;;;151.73;143.52;;;19.30;99.90;;;;;;5033184;28;20203;-75
2022/07/20 00:57:44;;;;;;;186.57;176.48;;;19.40;99.90;;;;;;5031886;28;20694;-75
2022/07/20 01:00:11;;;;;;;149.38;141.68;;;19.50;99.90;;;;;;5032326;28;20198;-75
2022/07/20 01:02:38;;;;;;;117.50;111.57;;;19.50;99.90;;;;;;5031417;28;20644;-74
2022/07/20 01:05:06;;;;;;;67.22;63.65;;;19.50;99.90;;;;;;5031646;28;20556;-75
2022/07/20 01:07:31;;;;;;;61.97;58.67;;;19.50;99.90;;;;;;5031750;28;20670;-75
2022/07/20 01:09:57;;;;;;;67.07;63.72;;;19.50;99.90;;;;;;5033377;28;20274;-73
2022/07/20 01:12:23;;;;;;;54.65;51.35;;;19.50;99.90;;;;;;5032049;28;20234;-75
2022/07/20 01:14:58;;;;;;;63.95;60.63;;;19.50;99.90;;;;;;5030751;28;20199;-75
2022/07/20 01:17:24;;;;;;;50.88;48.22;;;19.40;99.90;;;;;;5031322;28;20228;-73
2022/07/20 01:19:49;;;;;;;36.55;34.17;;;19.40;99.90;;;;;;5031714;28;20656;-75
2022/07/20 01:22:15;;;;;;;51.22;48.55;;;19.30;99.90;;;;;;5031863;28;20721;-75
2022/07/20 01:24:41;;;;;;;20.20;18.73;;;19.30;99.90;;;;;;5032127;28;20698;-75
2022/07/20 01:27:07;;;;;;;37.33;35.22;;;19.30;99.90;;;;;;5030866;28;20553;-75
2022/07/20 01:29:33;;;;;;;104.60;99.13;;;19.20;99.90;;;;;;5031026;28;20687;-75
2022/07/20 01:31:58;;;;;;;132.27;125.32;;;19.10;99.90;;;;;;5031516;28;20642;-75
2022/07/20 01:34:24;;;;;;;193.02;183.15;;;19.00;99.90;;;;;;5032083;28;20222;-74
2022/07/20 01:36:50;;;;;;;172.07;163.30;;;18.90;99.90;;;;;;5031055;28;20214;-75
2022/07/20 01:39:15;;;;;;;127.88;120.50;;;18.80;99.90;;;;;;5031153;28;20171;-75
2022/07/20 01:41:41;;;;;;;76.10;72.05;;;18.70;99.90;;;;;;5030485;28;20237;-75
2022/07/20 01:44:07;;;;;;;50.10;47.33;;;18.50;99.90;;;;;;5031469;28;20215;-75
2022/07/20 01:46:33;;;;;;;43.80;41.35;;;18.50;99.90;;;;;;5031468;28;20183;-75
2022/07/20 01:48:59;;;;;;;28.65;26.92;;;18.50;99.90;;;;;;5030444;28;20175;-74
2022/07/20 01:51:24;;;;;;;31.83;30.05;;;18.50;99.90;;;;;;5031633;28;20683;-74
2022/07/20 01:53:50;;;;;;;25.98;24.30;;;18.50;99.90;;;;;;5029713;28;20171;-75
2022/07/20 01:56:16;;;;;;;20.42;19.23;;;18.60;99.90;;;;;;5031214;28;20518;-75
2022/07/20 01:58:42;;;;;;;19.33;18.00;;;18.60;99.90;;;;;;5030675;28;20202;-75
2022/07/20 02:01:08;;;;;;;21.63;20.20;;;18.70;99.90;;;;;;5030614;28;20547;-75
2022/07/20 02:03:35;;;;;;;20.70;19.23;;;18.70;99.90;;;;;;5029831;28;20258;-75
2022/07/20 02:06:01;;;;;;;33.65;31.35;;;18.60;99.90;;;;;;5029851;28;20209;-74
2022/07/20 02:08:28;;;;;;;25.90;24.40;;;18.50;99.90;;;;;;5029245;28;20175;-75
2022/07/20 02:10:54;;;;;;;22.27;20.45;;;18.30;99.90;;;;;;5029946;28;20253;-74
2022/07/20 02:13:20;;;;;;;35.53;33.00;;;18.20;99.90;;;;;;5032593;28;20207;-74
2022/07/20 02:18:30;;;;;;;56.42;53.20;;;18.00;99.90;;;;;;5030402;28;20722;-75
2022/07/20 02:20:56;;;;;;;33.53;31.40;;;18.00;99.90;;;;;;5030093;28;20269;-74
2022/07/20 02:23:22;;;;;;;34.42;32.38;;;18.10;99.90;;;;;;5031248;28;20189;-75
2022/07/20 02:25:47;;;;;;;49.73;46.97;;;18.30;99.90;;;;;;5029628;28;20242;-74
2022/07/20 02:28:13;;;;;;;70.93;66.53;;;18.20;99.90;;;;;;5029614;28;20187;-75
2022/07/20 02:30:40;;;;;;;56.75;53.40;;;18.20;99.90;;;;;;5034226;28;20175;-75
2022/07/20 02:33:06;;;;;;;61.90;57.97;;;18.20;99.90;;;;;;5038207;28;20268;-74
2022/07/20 02:35:32;;;;;;;54.17;51.10;;;18.20;99.90;;;;;;5034188;28;20203;-74
2022/07/20 02:37:58;;;;;;;45.50;43.00;;;18.20;99.90;;;;;;5029242;28;20590;-75
2022/07/20 02:40:24;;;;;;;29.23;27.43;;;18.10;99.90;;;;;;5029852;28;20324;-75
2022/07/20 02:42:50;;;;;;;34.65;32.40;;;18.10;99.90;;;;;;5030018;28;20737;-73
2022/07/20 02:45:15;;;;;;;26.80;25.10;;;18.00;99.90;;;;;;5030620;28;20245;-75
2022/07/20 02:47:46;;;;;;;15.90;14.85;;;18.00;99.90;;;;;;5023494;28;20199;-75
2022/07/20 02:50:13;;;;;;;11.40;10.37;;;18.00;99.90;;;;;;5042389;28;20182;-75
2022/07/20 02:52:39;;;;;;;14.90;13.77;;;18.10;99.90;;;;;;5050629;28;20206;-75
2022/07/20 02:55:06;;;;;;;16.37;13.30;;;18.00;99.90;;;;;;5049755;28;20237;-75
2022/07/20 02:57:32;;;;;;;14.23;13.02;;;17.90;99.90;;;;;;5029634;28;20202;-75
2022/07/20 02:59:58;;;;;;;18.30;17.20;;;17.80;99.90;;;;;;5030814;28;20693;-75
2022/07/20 03:02:24;;;;;;;15.63;14.50;;;17.80;99.90;;;;;;5030716;28;20175;-75
2022/07/20 03:04:50;;;;;;;16.08;14.95;;;17.70;99.90;;;;;;5030059;28;20260;-74
2022/07/20 03:07:16;;;;;;;15.00;13.80;;;17.80;99.90;;;;;;5028621;28;20707;-74
2022/07/20 03:09:42;;;;;;;12.87;11.97;;;17.80;99.90;;;;;;5029496;28;20268;-75
2022/07/20 03:12:09;;;;;;;11.93;10.90;;;17.70;99.90;;;;;;5029013;28;20209;-74
2022/07/20 03:14:35;;;;;;;13.43;12.53;;;17.70;99.90;;;;;;5031449;28;20737;-73
2022/07/20 03:17:00;;;;;;;20.20;18.88;;;17.70;99.90;;;;;;5029862;28;20225;-74
2022/07/20 03:19:26;;;;;;;39.83;37.63;;;17.70;99.90;;;;;;5045690;28;20183;-74
2022/07/20 03:21:52;;;;;;;10.97;10.03;;;17.70;99.90;;;;;;5030301;28;20187;-74
2022/07/20 03:24:18;;;;;;;12.50;11.55;;;17.60;99.90;;;;;;5030487;28;20764;-74
2022/07/20 03:26:44;;;;;;;21.10;14.73;;;17.50;99.90;;;;;;5028033;28;20659;-74
2022/07/20 03:29:09;;;;;;;45.60;43.10;;;17.40;99.90;;;;;;5031994;28;20541;-74
2022/07/20 03:31:35;;;;;;;22.90;21.47;;;17.40;99.90;;;;;;5032702;28;20285;-73
2022/07/20 03:34:01;;;;;;;30.00;28.07;;;17.40;99.90;;;;;;5034034;28;20312;-74
2022/07/20 03:36:27;;;;;;;31.40;29.43;;;17.30;99.90;;;;;;5034006;28;20170;-74
2022/07/20 03:38:52;;;;;;;30.27;28.43;;;17.30;99.90;;;;;;5031512;28;20175;-74
2022/07/20 03:41:18;;;;;;;404.57;378.57;;;17.40;99.90;;;;;;5031642;28;20282;-74
2022/07/20 03:43:44;;;;;;;42.93;40.37;;;17.30;99.90;;;;;;5030648;28;20185;-74
2022/07/20 03:46:11;;;;;;;87.07;81.70;;;17.30;99.90;;;;;;5051888;22;20235;-73
2022/07/20 03:48:39;;;;;;;54.43;51.13;;;17.30;99.90;;;;;;5030178;28;20278;-73
2022/07/20 03:51:05;;;;;;;33.17;30.43;;;17.30;99.90;;;;;;5015623;28;20266;-73
2022/07/20 03:53:31;;;;;;;26.87;25.10;;;17.20;99.90;;;;;;5033907;28;20279;-73
2022/07/20 03:55:57;;;;;;;32.50;29.97;;;17.20;99.90;;;;;;5034266;28;20198;-73
2022/07/20 03:58:22;;;;;;;50.20;46.90;;;17.30;99.90;;;;;;5037495;28;20298;-73
2022/07/20 04:00:48;;;;;;;59.20;54.93;;;17.20;99.90;;;;;;5034968;28;20175;-72
2022/07/20 04:03:14;;;;;;;42.53;39.93;;;17.20;99.90;;;;;;5034378;28;20592;-72
2022/07/20 04:05:39;;;;;;;30.23;28.33;;;17.10;99.90;;;;;;5033661;28;20265;-73
2022/07/20 04:08:08;;;;;;;34.90;32.83;;;17.10;99.90;;;;;;5032814;28;20179;-73
2022/07/20 04:10:35;;;;;;;129.30;121.37;;;17.10;99.90;;;;;;5016017;28;20175;-73
2022/07/20 04:13:04;;;;;;;64.33;60.60;;;17.20;99.90;;;;;;5033459;28;20302;-73
2022/07/20 04:15:30;;;;;;;18.20;16.93;;;17.20;99.90;;;;;;5033368;28;20839;-73
2022/07/20 04:17:56;;;;;;;32.07;30.17;;;17.20;99.90;;;;;;5014888;28;20187;-73
2022/07/20 04:20:22;;;;;;;29.53;27.60;;;17.20;99.90;;;;;;5015886;28;20171;-73
2022/07/20 04:22:48;;;;;;;27.97;26.17;;;17.20;99.90;;;;;;5033394;28;20563;-73
2022/07/20 04:25:14;;;;;;;20.17;19.00;;;17.20;99.90;;;;;;5033348;28;20203;-73
2022/07/20 04:27:40;;;;;;;23.73;22.17;;;17.30;99.90;;;;;;5032504;28;20241;-73
2022/07/20 04:30:06;;;;;;;20.17;18.63;;;17.30;99.90;;;;;;5033603;28;20210;-73
2022/07/20 04:32:32;;;;;;;31.20;29.20;;;17.40;99.90;;;;;;5024419;28;20265;-73
2022/07/20 04:34:58;;;;;;;24.17;22.40;;;17.50;99.90;;;;;;5033213;28;20199;-73
2022/07/20 04:37:23;;;;;;;39.73;37.20;;;17.60;99.90;;;;;;5032173;28;20179;-73
2022/07/20 04:39:49;;;;;;;39.93;36.37;;;17.70;99.90;;;;;;5031408;28;20175;-73
2022/07/20 04:42:15;;;;;;;26.37;23.63;;;17.70;99.90;;;;;;5032744;28;20241;-72
2022/07/20 04:44:41;;;;;;;36.93;32.97;;;17.80;99.90;;;;;;5032563;28;20207;-73
2022/07/20 04:47:07;;;;;;;16.93;13.60;;;17.90;99.90;;;;;;5012817;28;20521;-73
2022/07/20 04:49:32;;;;;;;22.83;20.87;;;18.00;99.90;;;;;;5032504;28;20297;-75
2022/07/20 04:51:58;;;;;;;46.40;43.30;;;18.10;99.90;;;;;;5032200;28;20217;-75
2022/07/20 04:54:24;;;;;;;34.67;32.50;;;18.10;99.90;;;;;;5032297;28;20643;-74
2022/07/20 04:56:50;;;;;;;11.90;9.93;;;18.20;99.90;;;;;;5030226;28;20241;-76
2022/07/20 04:59:16;;;;;;;23.30;21.87;;;18.30;99.90;;;;;;5032443;28;20198;-75
2022/07/20 05:01:41;;;;;;;12.97;11.97;;;18.50;99.90;;;;;;5031190;28;20738;-76
2022/07/20 05:04:07;;;;;;;14.13;9.18;;;18.70;99.90;;;;;;5032287;28;20187;-75
2022/07/20 05:06:33;;;;;;;12.20;11.23;;;19.00;99.90;;;;;;5032074;28;20236;-75
2022/07/20 05:08:59;;;;;;;11.57;7.50;;;19.20;99.90;;;;;;5031228;28;20631;-73
2022/07/20 05:11:26;;;;;;;28.90;26.90;;;19.50;99.90;;;;;;5032904;28;20183;-75
2022/07/20 05:13:53;;;;;;;52.13;49.17;;;19.90;99.90;;;;;;5018957;28;20181;-80
2022/07/20 05:16:19;;;;;;;97.70;92.25;;;20.30;99.90;;;;;;5016520;28;20200;-78
2022/07/20 05:18:44;;;;;;;24.17;22.58;;;21.00;99.90;;;;;;5015111;28;20179;-78
2022/07/20 05:21:10;;;;;;;16.55;15.25;;;21.60;99.90;;;;;;5016014;28;20179;-79
2022/07/20 05:23:36;;;;;;;9.70;8.80;;;22.20;99.90;;;;;;5032309;28;20647;-79
2022/07/20 05:26:03;;;;;;;13.98;8.57;;;22.80;99.90;;;;;;5034490;28;20268;-79
2022/07/20 05:28:29;;;;;;;15.02;12.23;;;23.60;99.90;;;;;;5033218;28;20265;-78
2022/07/20 05:30:54;;;;;;;22.08;20.40;;;24.20;99.90;;;;;;5016490;28;20266;-78
2022/07/20 05:33:20;;;;;;;80.07;75.93;;;24.50;99.90;;;;;;5035545;28;20207;-78
2022/07/20 05:35:46;;;;;;;77.45;73.22;;;25.00;99.90;;;;;;5016538;28;20578;-77
2022/07/20 05:38:13;;;;;;;33.38;31.27;;;25.20;99.90;;;;;;5038266;28;20175;-78
2022/07/20 05:40:38;;;;;;;15.82;14.55;;;25.60;99.90;;;;;;5039302;28;20636;-77
2022/07/20 05:43:04;;;;;;;11.80;8.43;;;25.80;98.40;;;;;;5032731;28;20190;-78
2022/07/20 05:45:30;;;;;;;12.55;11.68;;;26.10;98.00;;;;;;5032643;28;20221;-78
2022/07/20 05:47:56;;;;;;;15.57;14.38;;;26.40;97.40;;;;;;5032154;28;20187;-78
2022/07/20 05:50:21;;;;;;;13.05;11.77;;;26.60;96.60;;;;;;5035890;28;20202;-77
2022/07/20 05:52:47;;;;;;;11.23;10.10;;;26.90;95.50;;;;;;5037838;28;20222;-77
2022/07/20 05:55:13;;;;;;;11.85;10.70;;;27.30;94.40;;;;;;5037617;28;20227;-78
2022/07/20 05:57:39;;;;;;;14.93;13.57;;;27.80;93.50;;;;;;5017350;28;20794;-78
2022/07/20 06:00:05;;;;;;;13.88;12.63;;;28.00;91.80;;;;;;5032577;28;20178;-78
2022/07/20 06:02:31;;;;;;;16.33;15.20;;;27.80;91.70;;;;;;5035554;28;20202;-78
2022/07/20 06:04:57;;;;;;;15.60;14.20;;;27.80;91.20;;;;;;5032877;28;20203;-78
2022/07/20 06:07:22;;;;;;;12.82;11.68;;;27.80;91.10;;;;;;5035067;28;20229;-78
2022/07/20 06:09:48;;;;;;;12.15;10.55;;;28.00;90.50;;;;;;5036676;28;20558;-78
2022/07/20 06:12:14;;;;;;;14.50;9.95;;;28.20;90.10;;;;;;5038486;28;20252;-78
2022/07/20 06:14:39;;;;;;;13.25;9.25;;;28.30;88.10;;;;;;5032333;28;20841;-79
2022/07/20 06:17:05;;;;;;;8.98;7.40;;;28.50;86.90;;;;;;5032489;28;20270;-79
2022/07/20 06:19:31;;;;;;;10.15;8.02;;;28.80;85.30;;;;;;5032969;28;20265;-79
2022/07/20 06:21:57;;;;;;;12.27;9.57;;;29.10;85.10;;;;;;5032338;28;20178;-78
2022/07/20 06:24:22;;;;;;;14.02;11.10;;;29.40;84.30;;;;;;5015296;28;20679;-78
2022/07/20 06:26:48;;;;;;;14.15;12.48;;;29.90;81.60;;;;;;5014228;28;20270;-78
2022/07/20 06:29:15;;;;;;;19.10;17.40;;;30.30;80.30;;;;;;5032136;28;20194;-79
2022/07/20 06:31:40;;;;;;;19.48;17.67;;;30.60;77.40;;;;;;5014622;28;20710;-78
2022/07/20 06:34:08;;;;;;;33.95;31.13;;;30.80;76.00;;;;;;5032543;28;20195;-78
2022/07/20 06:36:34;;;;;;;59.42;55.55;;;30.90;74.50;;;;;;5034637;28;20182;-77
2022/07/20 06:39:00;;;;;;;52.70;48.97;;;31.00;73.90;;;;;;5037456;28;20209;-78
2022/07/20 06:41:26;;;;;;;69.75;65.55;;;31.10;73.70;;;;;;5032629;28;20644;-79
2022/07/20 06:43:52;;;;;;;87.57;81.78;;;31.30;74.00;;;;;;5030962;28;20178;-79
2022/07/20 06:46:18;;;;;;;85.88;81.35;;;31.70;72.00;;;;;;5032153;28;20661;-78
2022/07/20 06:48:43;;;;;;;94.47;89.22;;;32.10;70.90;;;;;;5013917;28;20659;-78
2022/07/20 06:51:10;;;;;;;119.18;112.95;;;32.30;69.40;;;;;;5032086;28;20197;-78
2022/07/20 06:53:36;;;;;;;171.32;162.93;;;32.30;67.60;;;;;;5031550;28;20769;-78
2022/07/20 06:56:01;;;;;;;297.75;282.45;;;32.30;64.70;;;;;;5020209;28;20203;-78
2022/07/20 06:58:27;;;;;;;240.95;228.27;;;32.60;63.50;;;;;;5036126;28;20660;-78
2022/07/20 07:00:54;;;;;;;354.08;335.15;;;32.90;65.10;;;;;;5031969;28;20183;-78
2022/07/20 07:03:20;;;;;;;361.52;342.42;;;33.00;63.10;;;;;;5016349;28;20183;-78
2022/07/20 07:05:45;;;;;;;360.38;341.33;;;33.10;63.10;;;;;;5036014;28;20642;-78
2022/07/20 07:08:11;;;;;;;344.15;325.45;;;33.20;61.00;;;;;;5034666;28;20686;-78
2022/07/20 07:10:37;;;;;;;310.15;294.35;;;33.30;60.80;;;;;;5035600;28;20183;-77
2022/07/20 07:13:03;;;;;;;343.35;325.35;;;33.50;58.00;;;;;;5035312;28;20300;-77
2022/07/20 07:15:28;;;;;;;344.85;326.77;;;33.30;58.50;;;;;;5035230;28;20199;-77
2022/07/20 07:17:54;;;;;;;345.02;326.63;;;32.80;58.50;;;;;;5033907;28;20592;-76
2022/07/20 07:20:20;;;;;;;343.20;324.50;;;32.50;58.50;;;;;;5019036;28;20527;-75
2022/07/20 07:22:46;;;;;;;305.33;289.73;;;32.80;60.50;;;;;;5040784;28;20688;-76
2022/07/20 07:25:11;;;;;;;202.43;192.23;;;33.50;57.80;;;;;;5019953;28;20217;-76
2022/07/20 07:27:37;;;;;;;158.65;150.30;;;33.90;56.30;;;;;;5033642;28;20278;-77
2022/07/20 07:30:04;;;;;;;116.45;110.75;;;34.10;57.40;;;;;;5034512;28;20717;-77
2022/07/20 07:32:29;;;;;;;118.45;112.03;;;34.40;55.40;;;;;;5034232;28;20203;-77
2022/07/20 07:34:55;;;;;;;92.43;87.75;;;34.50;56.90;;;;;;5034110;28;20221;-76
2022/07/20 07:37:21;;;;;;;94.97;90.43;;;34.80;56.10;;;;;;5015734;28;20187;-77
2022/07/20 07:39:47;;;;;;;122.70;116.80;;;35.00;56.80;;;;;;5016752;28;20205;-76
2022/07/20 07:42:12;;;;;;;201.02;191.30;;;35.00;54.80;;;;;;5016612;28;20657;-78
2022/07/20 07:44:38;;;;;;;216.43;205.45;;;35.20;54.80;;;;;;5033270;28;20210;-77
2022/07/20 07:47:04;;;;;;;286.83;272.27;;;35.40;53.90;;;;;;5033285;28;20187;-77
2022/07/20 07:49:30;;;;;;;266.00;252.60;;;35.30;54.50;;;;;;5034383;28;20183;-77
2022/07/20 07:51:56;;;;;;;344.38;326.20;;;35.30;54.80;;;;;;5017301;28;20296;-77
2022/07/20 07:54:21;;;;;;;291.95;277.30;;;35.10;53.40;;;;;;5034449;28;20659;-77
2022/07/20 07:56:48;;;;;;;248.52;235.95;;;34.70;54.00;;;;;;5038149;28;20178;-77
2022/07/20 07:59:15;;;;;;;353.00;334.48;;;34.60;54.90;;;;;;5024893;28;20179;-77
2022/07/20 08:01:41;;;;;;;346.15;327.73;;;34.60;52.90;;;;;;5042373;28;20191;-78
2022/07/20 08:04:06;;;;;;;365.98;346.45;;;34.50;53.60;;;;;;5035267;28;20272;-78
2022/07/20 08:06:32;;;;;;;316.15;300.13;;;34.30;53.30;;;;;;5034693;28;20648;-78
2022/07/20 08:08:58;;;;;;;306.60;290.92;;;34.00;53.60;;;;;;5023923;28;20178;-77
2022/07/20 08:11:24;;;;;;;228.35;216.95;;;34.20;53.50;;;;;;5043677;28;20222;-77
2022/07/20 08:13:50;;;;;;;260.13;246.70;;;34.50;55.00;;;;;;5020009;28;20178;-76
2022/07/20 08:16:16;;;;;;;320.23;303.52;;;34.90;53.10;;;;;;5017301;28;20206;-76
2022/07/20 08:18:41;;;;;;;381.67;361.23;;;35.00;52.60;;;;;;5032887;28;20236;-77
2022/07/20 08:21:07;;;;;;;299.77;284.35;;;34.70;52.40;;;;;;5033453;28;20261;-77
2022/07/20 08:23:33;;;;;;;338.67;321.17;;;34.60;52.90;;;;;;5033438;28;20183;-78
2022/07/20 08:25:59;;;;;;;220.95;210.13;;;34.70;52.90;;;;;;5015839;28;20203;-76
2022/07/20 08:28:25;;;;;;;258.50;245.52;;;35.00;54.90;;;;;;5015182;28;20229;-76
2022/07/20 08:30:52;;;;;;;341.13;323.05;;;35.70;53.40;;;;;;5015684;28;20244;-76
2022/07/20 08:33:18;;;;;;;339.48;321.90;;;35.50;51.00;;;;;;5015492;28;20214;-76
2022/07/20 08:35:44;;;;;;;368.27;347.75;;;35.40;53.00;;;;;;5033261;28;20198;-77
2022/07/20 08:38:10;;;;;;;331.23;314.20;;;35.90;52.90;;;;;;5032735;28;20179;-77
2022/07/20 08:40:38;;;;;;;248.02;235.65;;;36.50;52.20;;;;;;5033398;28;20183;-76
2022/07/20 08:43:04;;;;;;;183.85;174.63;;;36.50;50.80;;;;;;5033023;28;20572;-78
2022/07/20 08:45:31;;;;;;;133.02;126.25;;;36.50;50.00;;;;;;5033175;28;20725;-77
2022/07/20 08:48:00;;;;;;;213.65;202.93;;;36.30;50.10;;;;;;5014478;28;20183;-77
2022/07/20 08:50:29;;;;;;;276.73;262.50;;;35.70;50.20;;;;;;5034725;28;20241;-77
2022/07/20 08:52:56;;;;;;;350.58;331.98;;;35.50;50.70;;;;;;5033299;28;20238;-76
2022/07/20 08:55:23;;;;;;;333.83;316.63;;;35.40;51.50;;;;;;5015059;28;20199;-75
2022/07/20 08:57:49;;;;;;;351.45;332.85;;;35.50;50.80;;;;;;5031765;28;20198;-76
2022/07/20 09:00:15;;;;;;;365.33;345.58;;;35.60;50.90;;;;;;5032569;28;20655;-77
2022/07/20 09:02:57;;;;;;;346.40;327.67;;;35.60;50.40;;;;;;5032381;28;20274;-76
2022/07/20 09:05:25;;;;;;;371.20;351.10;;;35.70;51.40;;;;;;5032530;28;20206;-76
2022/07/20 09:07:53;;;;;;;332.10;314.20;;;36.00;50.70;;;;;;5031824;28;20183;-76
2022/07/20 09:10:28;;;;;;;376.55;356.60;;;36.30;51.70;;;;;;5032498;28;20278;-76
2022/07/20 09:13:13;;;;;;;382.90;360.65;;;36.80;50.10;;;;;;5014649;28;20217;-76
2022/07/20 09:15:45;;;;;;;171.48;162.90;;;37.30;50.30;;;;;;5032351;28;20571;-74
2022/07/20 09:18:21;;;;;;;146.68;139.20;;;37.90;47.30;;;;;;5014023;28;20179;-75
2022/07/20 09:21:00;;;;;;;92.30;87.68;;;38.00;47.80;;;;;;5032460;28;20183;-75
2022/07/20 09:23:31;;;;;;;79.80;75.43;;;38.30;47.60;;;;;;5032474;28;20190;-76
2022/07/20 09:26:06;;;;;;;29.95;28.08;;;38.70;47.60;;;;;;5032056;28;20581;-76
2022/07/20 09:28:54;;;;;;;40.85;38.55;;;38.90;46.20;;;;;;5013848;28;20228;-74
2022/07/20 09:31:34;;;;;;;64.10;60.60;;;38.80;47.00;;;;;;5032269;28;20186;-75
2022/07/20 09:34:04;;;;;;;12.88;10.45;;;38.90;47.70;;;;;;5033577;28;20262;-75
2022/07/20 09:36:40;;;;;;;10.00;8.75;;;39.00;44.10;;;;;;5015736;28;20245;-75
2022/07/20 09:39:21;;;;;;;13.82;12.93;;;39.10;44.70;;;;;;5031964;28;20265;-74
2022/07/20 09:41:57;;;;;;;9.93;9.23;;;39.10;46.40;;;;;;5014309;28;20209;-74
2022/07/20 09:46:50;;;;;;;6.65;6.05;;;39.90;45.20;;;;;;5050921;22;20296;-77
2022/07/20 09:49:16;;;;;;;5.80;5.30;;;40.00;43.60;;;;;;5033259;28;20179;-77
2022/07/20 09:51:47;;;;;;;6.32;5.82;;;39.50;43.60;;;;;;5031309;28;20560;-76
2022/07/20 09:54:15;;;;;;;6.85;6.13;;;39.10;44.50;;;;;;5038283;28;20217;-77
2022/07/20 09:56:47;;;;;;;9.02;8.23;;;38.80;44.60;;;;;;5035489;28;20201;-77
2022/07/20 09:59:14;;;;;;;6.40;5.78;;;39.00;47.00;;;;;;5033415;28;20178;-77
2022/07/20 10:01:49;;;;;;;6.65;6.05;;;39.30;43.90;;;;;;5032290;28;20183;-77
2022/07/20 10:04:15;;;;;;;7.38;6.72;;;39.60;42.80;;;;;;5031227;28;20229;-77
2022/07/20 10:06:42;;;;;;;7.40;6.80;;;39.30;42.60;;;;;;5032425;28;20253;-78
2022/07/20 10:09:14;;;;;;;7.13;6.55;;;39.60;42.30;;;;;;5032489;28;20197;-79
2022/07/20 10:11:40;;;;;;;9.52;7.93;;;39.80;40.40;;;;;;5032688;28;20211;-78
2022/07/20 10:14:07;;;;;;;7.20;6.55;;;40.00;41.20;;;;;;5033304;28;20601;-77
2022/07/20 10:16:51;;;;;;;10.50;6.93;;;39.70;39.70;;;;;;5033622;28;20203;-77
2022/07/20 10:19:21;;;;;;;8.02;7.43;;;39.30;39.50;;;;;;5030912;28;20213;-75
2022/07/20 10:21:52;;;;;;;8.60;7.90;;;38.80;39.90;;;;;;5033875;28;20183;-76
2022/07/20 10:24:25;;;;;;;8.65;8.02;;;38.50;40.60;;;;;;5034209;28;20751;-76
2022/07/20 10:27:16;;;;;;;12.88;9.00;;;38.50;40.20;;;;;;5031330;28;20673;-77
2022/07/20 10:29:47;;;;;;;8.63;7.97;;;38.40;39.20;;;;;;5032750;28;20183;-77
2022/07/20 10:32:22;;;;;;;9.65;8.80;;;38.60;39.70;;;;;;5033899;28;20229;-77
2022/07/20 10:34:59;;;;;;;9.20;8.38;;;38.90;39.80;;;;;;5031102;28;20222;-77
2022/07/20 10:37:42;;;;;;;9.10;8.45;;;39.10;40.20;;;;;;5030964;28;20174;-76
2022/07/20 10:40:22;;;;;;;9.52;8.75;;;38.90;39.20;;;;;;5032753;28;20186;-78
2022/07/20 10:43:11;;;;;;;10.05;7.28;;;39.10;38.60;;;;;;5030623;28;20260;-77
2022/07/20 10:45:36;;;;;;;9.43;8.77;;;39.10;40.00;;;;;;5031772;28;20222;-75
2022/07/20 10:48:16;;;;;;;8.80;7.97;;;40.00;38.60;;;;;;5031613;28;20179;-77
2022/07/20 10:50:45;;;;;;;9.48;8.57;;;40.80;36.90;;;;;;5032082;28;20191;-76
2022/07/20 10:53:10;;;;;;;12.93;8.27;;;40.30;37.20;;;;;;5037738;28;20289;-76
2022/07/20 10:55:36;;;;;;;13.07;12.10;;;39.50;37.90;;;;;;5042924;28;20623;-77
2022/07/20 10:58:07;;;;;;;17.00;15.85;;;39.70;37.90;;;;;;5032774;28;20179;-77
2022/07/20 11:00:45;;;;;;;15.63;14.40;;;40.40;38.60;;;;;;5037116;28;20179;-76
2022/07/20 11:03:14;;;;;;;13.88;13.07;;;40.50;38.50;;;;;;5034636;28;20282;-76
2022/07/20 11:05:41;;;;;;;10.07;9.27;;;41.00;38.50;;;;;;5031013;28;20227;-77
2022/07/20 11:08:09;;;;;;;6.25;5.70;;;41.30;37.60;;;;;;5030681;28;20187;-77
2022/07/20 11:10:35;;;;;;;7.30;6.70;;;41.50;35.00;;;;;;5030970;28;20241;-76
2022/07/20 11:13:03;;;;;;;8.65;6.03;;;42.00;35.30;;;;;;5030773;28;20215;-77
2022/07/20 11:15:54;;;;;;;7.93;5.63;;;42.60;35.70;;;;;;5030768;28;20737;-76
2022/07/20 11:18:27;;;;;;;6.10;5.18;;;43.20;34.20;;;;;;5030081;28;20194;-76
2022/07/20 11:21:02;;;;;;;7.30;5.18;;;43.60;34.50;;;;;;5029673;28;20714;-76
2022/07/20 11:23:44;;;;;;;7.10;5.28;;;42.60;35.50;;;;;;5029600;28;20190;-76
2022/07/20 11:26:12;;;;;;;7.07;5.07;;;42.40;36.80;;;;;;5030972;28;20203;-76
2022/07/20 11:28:53;;;;;;;9.18;5.57;;;42.80;35.80;;;;;;5029684;28;20183;-75
2022/07/20 11:31:22;;;;;;;8.13;4.55;;;42.60;36.10;;;;;;5029927;28;20187;-75
2022/07/20 11:33:50;;;;;;;9.13;5.63;;;43.00;34.10;;;;;;5030696;28;20187;-74
2022/07/20 11:36:19;;;;;;;5.22;4.72;;;43.40;33.90;;;;;;5030799;28;20241;-76
2022/07/20 11:38:53;;;;;;;6.07;5.45;;;44.00;33.80;;;;;;5030459;28;20666;-73
2022/07/20 11:41:23;;;;;;;5.57;5.00;;;43.90;33.60;;;;;;5031127;28;20183;-74
2022/07/20 11:43:51;;;;;;;7.07;5.05;;;43.90;34.60;;;;;;5030294;28;20225;-76
2022/07/20 11:46:23;;;;;;;9.20;5.03;;;42.90;34.40;;;;;;5029685;28;20742;-76
2022/07/20 11:49:00;;;;;;;6.25;5.75;;;42.80;33.50;;;;;;5031319;28;20606;-77
2022/07/20 11:51:28;;;;;;;6.05;5.00;;;42.60;34.30;;;;;;5036203;28;20604;-75
2022/07/20 11:53:54;;;;;;;5.63;5.03;;;42.10;35.40;;;;;;5036313;28;20171;-76
2022/07/20 11:56:23;;;;;;;7.18;5.22;;;42.10;34.50;;;;;;5034638;28;20290;-77
2022/07/20 11:58:52;;;;;;;10.05;6.20;;;42.10;35.10;;;;;;5033786;28;20253;-77
2022/07/20 12:01:24;;;;;;;8.05;6.25;;;41.90;35.20;;;;;;5035675;28;20695;-77
2022/07/20 12:04:05;;;;;;;8.57;5.18;;;42.30;34.50;;;;;;5033071;28;20651;-77
2022/07/20 12:06:33;;;;;;;9.07;5.10;;;42.00;34.00;;;;;;5034595;28;20198;-76
2022/07/20 12:09:08;;;;;;;10.20;4.95;;;42.50;34.20;;;;;;5034932;28;20264;-78
2022/07/20 12:11:35;;;;;;;5.60;4.90;;;42.70;34.50;;;;;;5033986;28;20549;-77
2022/07/20 12:14:01;;;;;;;13.85;5.65;;;43.20;33.60;;;;;;5033732;28;20171;-77
2022/07/20 12:16:44;;;;;;;10.85;5.97;;;43.50;33.30;;;;;;5036461;28;20214;-78
2022/07/20 12:19:10;;;;;;;9.85;4.93;;;43.60;32.90;;;;;;5035567;28;20182;-77
2022/07/20 12:21:44;;;;;;;9.02;4.88;;;43.80;33.00;;;;;;5033323;28;20182;-76
2022/07/20 12:24:11;;;;;;;6.45;5.00;;;43.00;33.30;;;;;;5034301;28;20183;-76
2022/07/20 12:26:36;;;;;;;7.40;4.78;;;42.00;33.60;;;;;;5032660;28;20199;-77
2022/07/20 12:29:28;;;;;;;6.03;5.43;;;42.20;34.00;;;;;;5031954;28;20210;-78
2022/07/20 12:32:06;;;;;;;7.28;6.57;;;42.70;34.30;;;;;;5038719;28;20211;-75
2022/07/20 12:34:52;;;;;;;7.35;6.13;;;42.90;34.60;;;;;;5048787;28;20217;-77
2022/07/20 12:37:19;;;;;;;6.97;5.68;;;43.20;34.60;;;;;;5032618;28;20185;-77